createdAt,value
2023-02-12T00:02:50.799Z,-1.9
2023-02-12T00:08:28.022Z,-1.8
2023-02-12T00:14:04.954Z,-1.8
2023-02-12T00:19:11.911Z,-1.8
2023-02-12T00:24:50.028Z,-1.8
2023-02-12T00:30:28.961Z,-1.8
2023-02-12T00:35:52.335Z,-1.8
2023-02-12T00:41:30.979Z,-1.9
2023-02-12T00:47:08.470Z,-1.9
2023-02-12T00:52:49.059Z,-2
2023-02-12T00:58:26.576Z,-2.2
2023-02-12T01:04:04.293Z,-2.1
2023-02-12T01:09:42.015Z,-2.1
2023-02-12T01:15:19.027Z,-2.1
2023-02-12T01:20:58.176Z,-2.1
2023-02-12T01:26:20.761Z,-2.1
2023-02-12T01:32:00.090Z,-2.1
2023-02-12T01:37:38.889Z,-2.2
2023-02-12T01:43:19.057Z,-2.1
2023-02-12T01:48:56.780Z,-2.2
2023-02-12T01:54:34.656Z,-2.3
2023-02-12T02:00:12.621Z,-2.3
2023-02-12T02:05:50.567Z,-2.4
2023-02-12T02:11:12.778Z,-2.4
2023-02-12T02:16:50.975Z,-2.5
2023-02-12T02:22:28.690Z,-2.6
2023-02-12T02:28:05.129Z,-2.6
2023-02-12T02:33:42.749Z,-2.6
2023-02-12T02:39:35.793Z,-2.6
2023-02-12T02:45:12.625Z,-2.6
2023-02-12T02:50:50.426Z,-2.6
2023-02-12T02:56:29.228Z,-2.6
2023-02-12T03:01:52.060Z,-2.6
2023-02-12T03:07:14.478Z,-2.6
2023-02-12T03:12:53.185Z,-2.5
2023-02-12T03:18:30.591Z,-2.4
2023-02-12T03:24:06.795Z,-2.3
2023-02-12T03:29:29.312Z,-2.3
2023-02-12T03:34:51.366Z,-2.1
2023-02-12T03:40:27.696Z,-2
2023-02-12T03:46:05.690Z,-1.9
2023-02-12T03:51:42.892Z,-1.9
2023-02-12T03:57:19.613Z,-1.8
2023-02-12T04:02:58.554Z,-1.8
2023-02-12T04:08:36.372Z,-1.8
2023-02-12T04:14:12.023Z,-1.7
2023-02-12T04:19:51.657Z,-1.7
2023-02-12T04:25:30.069Z,-1.6
2023-02-12T04:31:08.167Z,-1.6
2023-02-12T04:36:46.570Z,-1.6
2023-02-12T04:42:07.659Z,-1.6
2023-02-12T04:47:43.997Z,-1.5
2023-02-12T04:53:22.116Z,-1.4
2023-02-12T04:58:58.148Z,-1.4
2023-02-12T05:04:39.654Z,-1.3
2023-02-12T05:10:01.922Z,-1.2
2023-02-12T05:15:38.775Z,-1.1
2023-02-12T05:21:00.626Z,-1.1
2023-02-12T05:26:37.979Z,-0.9
2023-02-12T05:32:00.610Z,-0.8
2023-02-12T05:37:38.139Z,-0.8
2023-02-12T05:43:01.312Z,-0.7
2023-02-12T05:48:37.911Z,-0.7
2023-02-12T05:54:00.877Z,-0.6
2023-02-12T05:59:39.873Z,-0.6
2023-02-12T06:05:16.470Z,-0.6
2023-02-12T06:10:37.457Z,-0.6
2023-02-12T06:16:17.665Z,-0.5
2023-02-12T06:21:39.203Z,-0.4
2023-02-12T06:26:59.620Z,-0.3
2023-02-12T06:32:38.381Z,-0.3
2023-02-12T06:38:15.576Z,-0.1
2023-02-12T06:43:51.734Z,0
2023-02-12T06:49:14.758Z,0.1
2023-02-12T06:54:55.356Z,0.2
2023-02-12T07:00:17.381Z,0.3
2023-02-12T07:05:55.807Z,0.4
2023-02-12T07:11:17.832Z,0.4
2023-02-12T07:16:26.981Z,0.6
2023-02-12T07:21:49.332Z,0.6
2023-02-12T07:26:58.373Z,0.8
2023-02-12T07:32:05.204Z,0.9
2023-02-12T07:37:42.517Z,0.9
2023-02-12T07:43:19.324Z,1
2023-02-12T07:48:41.007Z,1.1
2023-02-12T07:54:18.630Z,1.2
2023-02-12T07:59:39.886Z,1.3
2023-02-12T08:05:01.491Z,1.3
2023-02-12T08:10:40.062Z,1.4
2023-02-12T08:16:17.223Z,1.5
2023-02-12T08:22:08.367Z,1.6
2023-02-12T08:27:46.416Z,1.7
2023-02-12T08:33:24.804Z,1.8
2023-02-12T08:39:01.727Z,1.9
2023-02-12T08:44:39.634Z,2.2
2023-02-12T08:50:01.610Z,2.3
2023-02-12T08:55:23.691Z,2.4
2023-02-12T09:01:01.743Z,2.6
2023-02-12T09:06:38.726Z,2.8
2023-02-12T09:11:59.470Z,3.1
2023-02-12T09:17:38.002Z,3.4
2023-02-12T09:23:15.687Z,3.9
2023-02-12T09:28:51.922Z,4.6
2023-02-12T09:34:15.029Z,5.2
2023-02-12T09:39:37.232Z,5.8
2023-02-12T09:45:13.958Z,6.5
2023-02-12T09:50:53.385Z,7.1
2023-02-12T09:56:31.006Z,7.6
2023-02-12T10:02:16.614Z,8.1
2023-02-12T10:07:52.626Z,8.6
2023-02-12T10:13:33.832Z,9.3
2023-02-12T10:19:13.107Z,9.8
2023-02-12T10:24:58.636Z,10.3
2023-02-12T10:30:21.637Z,11.4
2023-02-12T10:35:45.586Z,14.1
2023-02-12T10:41:23.130Z,17.9
2023-02-12T10:47:01.655Z,21.8
2023-02-12T10:52:39.679Z,23.4
2023-02-12T10:58:19.331Z,23.7
2023-02-12T11:03:57.334Z,23.5
2023-02-12T11:09:34.146Z,22.6
2023-02-12T11:15:12.528Z,22.1
2023-02-12T11:20:52.177Z,22.2
2023-02-12T11:26:30.483Z,22.8
2023-02-12T11:31:53.536Z,25.3
2023-02-12T11:37:35.134Z,27.5
2023-02-12T11:43:12.062Z,27.9
2023-02-12T11:48:49.459Z,27.3
2023-02-12T11:53:55.938Z,26.8
2023-02-12T11:59:18.315Z,26.4
2023-02-12T12:04:56.173Z,25.9
2023-02-12T12:10:34.629Z,25.6
2023-02-12T12:15:56.841Z,24.9
2023-02-12T12:21:34.858Z,24.3
2023-02-12T12:27:11.834Z,23.4
2023-02-12T12:32:32.907Z,22.8
2023-02-12T12:38:10.119Z,22.1
2023-02-12T12:43:47.572Z,21.4
2023-02-12T12:49:25.328Z,20.8
2023-02-12T12:54:47.877Z,20.3
2023-02-12T13:00:25.717Z,20
2023-02-12T13:06:05.009Z,19.3
2023-02-12T13:11:42.174Z,18.6
2023-02-12T13:17:20.016Z,17.8
2023-02-12T13:22:42.975Z,17.2
2023-02-12T13:28:21.858Z,16.7
2023-02-12T13:34:08.423Z,16.5
2023-02-12T13:39:32.768Z,16.5
2023-02-12T13:44:40.135Z,16.1
2023-02-12T13:50:03.393Z,15.6
2023-02-12T13:55:25.014Z,15.3
2023-02-12T14:00:47.265Z,14.8
2023-02-12T14:06:10.880Z,14.4
2023-02-12T14:11:33.682Z,13.8
2023-02-12T14:16:58.474Z,13.2
2023-02-12T14:22:22.745Z,12.6
2023-02-12T14:27:44.717Z,11.9
2023-02-12T14:32:52.814Z,11.4
2023-02-12T14:38:15.843Z,10.9
2023-02-12T14:43:35.971Z,10.3
2023-02-12T14:48:58.102Z,9.8
2023-02-12T14:54:20.200Z,9.3
2023-02-12T14:59:43.168Z,8.9
2023-02-12T15:05:20.820Z,8.4
2023-02-12T15:10:28.414Z,8
2023-02-12T15:16:05.791Z,7.6
2023-02-12T15:21:43.593Z,7.2
2023-02-12T15:27:21.940Z,6.8
2023-02-12T15:33:02.653Z,6.4
2023-02-12T15:38:46.326Z,6.1
2023-02-12T15:43:52.929Z,5.8
2023-02-12T15:49:32.675Z,5.4
2023-02-12T15:55:09.289Z,5.1
2023-02-12T16:00:03.267Z,4.8
2023-02-12T16:05:24.418Z,4.5
2023-02-12T16:11:02.663Z,4.2
2023-02-12T16:16:09.353Z,3.9
2023-02-12T16:21:30.952Z,3.6
2023-02-12T16:27:08.701Z,3.4
2023-02-12T16:32:47.379Z,3.1
2023-02-12T16:38:24.650Z,2.9
2023-02-12T16:44:02.749Z,2.7
2023-02-12T16:49:41.377Z,2.4
2023-02-12T16:55:18.546Z,2.3
2023-02-12T17:00:41.199Z,2.1
2023-02-12T17:06:04.586Z,1.9
2023-02-12T17:11:27.576Z,1.7
2023-02-12T17:17:04.140Z,1.6
2023-02-12T17:22:41.835Z,1.4
2023-02-12T17:28:04.186Z,1.3
2023-02-12T17:33:26.537Z,1.1
2023-02-12T17:39:19.641Z,1
2023-02-12T17:44:57.751Z,0.9
2023-02-12T17:50:36.703Z,0.8
2023-02-12T17:56:14.561Z,0.7
2023-02-12T18:01:51.973Z,0.7
2023-02-12T18:06:59.030Z,0.6
2023-02-12T18:12:22.050Z,0.6
2023-02-12T18:17:58.234Z,0.6
2023-02-12T18:23:36.278Z,0.5
2023-02-12T18:29:14.135Z,0.5
2023-02-12T18:34:52.190Z,0.5
2023-02-12T18:40:30.282Z,0.5
2023-02-12T18:45:52.497Z,0.5
2023-02-12T18:51:31.432Z,0.4
2023-02-12T18:57:09.574Z,0.4
2023-02-12T19:02:33.122Z,0.4
2023-02-12T19:07:55.894Z,0.4
2023-02-12T19:13:18.800Z,0.3
2023-02-12T19:18:41.258Z,0.3
2023-02-12T19:24:03.585Z,0.2
2023-02-12T19:30:06.504Z,0.1
2023-02-12T19:35:16.168Z,0
2023-02-12T19:40:39.073Z,-0.1
2023-02-12T19:46:18.858Z,-0.3
2023-02-12T19:51:40.808Z,-0.4
2023-02-12T19:57:03.490Z,-0.5
2023-02-12T20:02:10.032Z,-0.6
2023-02-12T20:07:01.639Z,-0.8
2023-02-12T20:17:31.707Z,-1.1
2023-02-12T20:22:41.158Z,-1.3
2023-02-12T20:28:02.409Z,-1.4
2023-02-12T20:33:25.344Z,-1.5
2023-02-12T20:38:55.249Z,-1.6
2023-02-12T20:44:17.380Z,-1.7
2023-02-12T20:49:23.351Z,-1.8
2023-02-12T20:54:47.986Z,-1.9
2023-02-12T21:00:08.484Z,-2
2023-02-12T21:05:46.514Z,-2.1
2023-02-12T21:11:24.803Z,-2.1
2023-02-12T21:16:56.314Z,-2.2
2023-02-12T21:22:33.823Z,-2.3
2023-02-12T21:28:12.968Z,-2.4
2023-02-12T21:33:35.997Z,-2.4
2023-02-12T21:39:13.326Z,-2.5
2023-02-12T21:44:57.793Z,-2.6
2023-02-12T21:50:10.461Z,-2.8
2023-02-12T21:55:47.650Z,-2.8
2023-02-12T22:01:24.918Z,-2.9
2023-02-12T22:07:00.697Z,-3.1
2023-02-12T22:12:37.735Z,-3.2
2023-02-12T22:18:15.720Z,-3.3
2023-02-12T22:23:53.017Z,-3.4
2023-02-12T22:29:29.871Z,-3.4
2023-02-12T22:34:36.531Z,-3.5
2023-02-12T22:40:13.862Z,-3.6
2023-02-12T22:45:51.909Z,-3.6
2023-02-12T22:51:29.411Z,-3.6
2023-02-12T22:57:06.515Z,-3.7
2023-02-12T23:02:44.336Z,-3.6
2023-02-12T23:08:36.788Z,-3.7
2023-02-12T23:14:15.180Z,-3.7
2023-02-12T23:19:36.742Z,-3.7
2023-02-12T23:24:43.967Z,-3.7
2023-02-12T23:30:05.936Z,-3.7
2023-02-12T23:41:06.161Z,-3.8
2023-02-12T23:46:13.399Z,-3.8
2023-02-12T23:51:34.813Z,-3.9
2023-02-12T23:57:03.415Z,-3.9
